Time;durP1;ratioP1;P1;durP2;ratioP2;P2;SDS_P1;SDS_P2;PMS_P1;PMS_P2;Temp;Humidity;BMP_temperature;BMP_pressure;BME280_temperature;BME280_humidity;BME280_pressure;Samples;Min_cycle;Max_cycle;Signal;HPM_P1;HPM_P2
2021/01/24 00:01:00;;;;;;;38.25;27.66;;;3.80;99.90;;;5.16;100.00;99306.16;1709963;75;24520;-74
2021/01/24 00:03:17;;;;;;;39.08;27.85;;;3.80;99.90;;;5.17;100.00;99304.03;1706275;75;24932;-74
2021/01/24 00:05:33;;;;;;;39.30;28.23;;;3.80;99.90;;;5.25;100.00;99310.11;1695142;75;24524;-74
2021/01/24 00:07:51;;;;;;;41.20;28.16;;;3.80;99.90;;;5.23;100.00;99307.48;1701664;75;24447;-75
2021/01/24 00:10:12;;;;;;;39.19;27.58;;;3.80;99.90;;;5.27;100.00;99312.25;1705332;75;25217;-74
2021/01/24 00:12:28;;;;;;;38.32;25.88;;;3.80;99.90;;;5.27;100.00;99308.37;1696963;75;25040;-73
2021/01/24 00:14:44;;;;;;;36.86;23.23;;;3.80;99.90;;;5.23;100.00;99308.78;1701509;75;24500;-72
2021/01/24 00:17:02;;;;;;;33.34;22.62;;;3.80;99.90;;;5.15;100.00;99312.17;1700305;75;24854;-73
2021/01/24 00:19:18;;;;;;;37.03;24.52;;;3.80;99.90;;;5.12;100.00;99321.19;1701801;75;24510;-74
2021/01/24 00:21:34;;;;;;;37.69;25.15;;;3.70;99.90;;;5.25;100.00;99316.11;1697281;75;24515;-74
2021/01/24 00:23:50;;;;;;;37.74;24.00;;;3.70;99.90;;;5.22;100.00;99313.93;1703303;74;24524;-75
2021/01/24 00:26:08;;;;;;;32.28;23.42;;;3.70;99.90;;;5.11;100.00;99311.70;1691732;75;25060;-77
2021/01/24 00:28:26;;;;;;;35.82;22.96;;;3.70;99.90;;;5.01;100.00;99318.50;1702522;74;24781;-73
2021/01/24 00:30:46;;;;;;;40.19;23.10;;;3.70;99.90;;;5.02;100.00;99316.80;1695398;74;24531;-75
2021/01/24 00:33:02;;;;;;;31.10;22.26;;;3.70;99.90;;;5.00;100.00;99319.36;1613167;75;24419;-74
2021/01/24 00:35:20;;;;;;;32.92;22.72;;;3.60;99.90;;;4.97;100.00;99323.21;1613698;78;24506;-76
2021/01/24 00:37:36;;;;;;;28.26;21.66;;;3.60;99.90;;;4.83;100.00;99327.80;1608446;79;24488;-72
2021/01/24 00:39:53;;;;;;;34.42;22.40;;;3.60;99.90;;;4.71;100.00;99328.55;1616765;78;25014;-74
2021/01/24 00:42:11;;;;;;;33.01;21.94;;;3.60;99.90;;;4.65;100.00;99330.66;1610764;78;24531;-73
2021/01/24 00:44:28;;;;;;;29.86;21.72;;;3.50;99.90;;;4.49;100.00;99328.78;1608949;79;24999;-74
2021/01/24 00:46:44;;;;;;;34.19;24.92;;;3.50;99.90;;;4.56;100.00;99334.86;1615411;78;24880;-73
2021/01/24 00:49:01;;;;;;;34.74;24.56;;;3.40;99.90;;;4.58;100.00;99340.45;1614474;79;24477;-75
2021/01/24 00:51:17;;;;;;;39.03;26.47;;;3.40;99.90;;;4.64;100.00;99339.67;1610942;78;24984;-74
2021/01/24 00:53:34;;;;;;;39.76;27.03;;;3.40;99.90;;;4.64;100.00;99343.13;1611421;78;24482;-77
2021/01/24 00:55:51;;;;;;;38.64;27.39;;;3.40;99.90;;;4.66;100.00;99342.69;1609946;79;24508;-74
2021/01/24 00:58:07;;;;;;;35.36;26.60;;;3.40;99.90;;;4.61;100.00;99344.38;1613666;78;24465;-76
2021/01/24 01:00:24;;;;;;;39.04;26.38;;;3.30;99.90;;;4.58;100.00;99343.03;1621799;79;24545;-73
2021/01/24 01:02:41;;;;;;;34.95;24.29;;;3.30;99.90;;;4.67;100.00;99346.14;1625591;79;24492;-73
2021/01/24 01:04:58;;;;;;;33.07;22.95;;;3.30;99.90;;;4.73;100.00;99350.51;1625474;79;24458;-72
2021/01/24 01:07:14;;;;;;;34.72;22.03;;;3.30;99.90;;;4.58;100.00;99344.77;1622331;78;24820;-73
2021/01/24 01:09:30;;;;;;;35.47;22.92;;;3.30;99.90;;;4.66;100.00;99352.16;1618192;79;24470;-73
2021/01/24 01:11:46;;;;;;;31.29;22.28;;;3.30;99.90;;;4.69;100.00;99353.03;1619408;79;24490;-73
2021/01/24 01:14:03;;;;;;;35.37;21.80;;;3.30;99.90;;;4.74;100.00;99358.25;1627476;79;24503;-73
2021/01/24 01:16:20;;;;;;;34.12;21.37;;;3.30;99.90;;;4.73;100.00;99356.95;1626628;78;24905;-72
2021/01/24 01:18:36;;;;;;;30.72;20.94;;;3.30;99.90;;;4.76;100.00;99351.38;1628683;79;24523;-73
2021/01/24 01:20:53;;;;;;;28.75;19.93;;;3.30;99.90;;;4.68;100.00;99360.33;1624967;79;24580;-73
2021/01/24 01:23:10;;;;;;;29.19;19.58;;;3.30;99.90;;;4.61;100.00;99370.58;1628846;79;24979;-74
2021/01/24 01:25:28;;;;;;;26.08;18.26;;;3.30;99.90;;;4.68;100.00;99366.35;1628892;79;24960;-74
2021/01/24 01:27:44;;;;;;;26.73;17.47;;;3.30;99.90;;;4.50;100.00;99370.44;1619866;79;24541;-72
2021/01/24 01:30:12;;;;;;;25.37;17.41;;;3.30;99.90;;;4.68;100.00;99365.06;1628040;79;24439;-71
2021/01/24 01:32:28;;;;;;;23.14;16.17;;;3.30;99.90;;;4.58;100.00;99370.09;1628889;79;24474;-72
2021/01/24 01:34:44;;;;;;;23.98;15.83;;;3.30;99.90;;;4.51;100.00;99381.63;1620845;79;24545;-74
2021/01/24 01:37:02;;;;;;;22.45;15.75;;;3.30;99.90;;;4.50;100.00;99376.87;1621471;79;24467;-72
2021/01/24 01:39:18;;;;;;;21.73;14.56;;;3.30;99.90;;;4.51;100.00;99383.78;1625378;78;24947;-73
2021/01/24 01:41:36;;;;;;;21.62;15.06;;;3.30;99.90;;;4.57;100.00;99386.42;1627743;78;24467;-72
2021/01/24 01:43:52;;;;;;;20.29;13.85;;;3.30;99.90;;;4.55;100.00;99386.83;1625131;79;24462;-74
2021/01/24 01:46:07;;;;;;;22.14;13.65;;;3.30;99.90;;;4.68;100.00;99389.11;1625425;79;25030;-75
2021/01/24 01:48:24;;;;;;;17.83;12.65;;;3.30;99.90;;;4.63;100.00;99392.92;1628794;79;24462;-74
2021/01/24 01:50:40;;;;;;;16.29;11.76;;;3.30;99.90;;;4.54;100.00;99390.27;1627654;78;24929;-74
2021/01/24 01:53:00;;;;;;;16.33;11.12;;;3.30;99.90;;;4.50;100.00;99391.05;1620685;78;24582;-72
2021/01/24 01:55:16;;;;;;;15.34;10.67;;;3.20;99.90;;;4.54;100.00;99396.70;1623241;79;24569;-73
2021/01/24 01:57:32;;;;;;;15.78;10.78;;;3.30;99.90;;;4.62;100.00;99402.81;1623600;79;24522;-76
2021/01/24 01:59:48;;;;;;;17.46;11.13;;;3.20;99.90;;;4.48;100.00;99391.90;1620235;78;24466;-73
2021/01/24 02:02:12;;;;;;;16.55;11.28;;;3.20;99.90;;;4.50;100.00;99400.52;1613477;78;24520;-72
2021/01/24 02:04:34;;;;;;;14.91;9.86;;;3.20;99.90;;;4.52;100.00;99406.13;1608737;79;24481;-73
2021/01/24 02:09:46;;;;;;;15.78;10.17;;;3.20;99.90;;;4.77;100.00;99398.66;1738915;72;25281;-73
2021/01/24 02:12:12;;;;;;;16.72;10.70;;;3.20;99.90;;;4.63;100.00;99403.69;1706392;74;24961;-73
2021/01/24 02:14:33;;;;;;;12.80;9.97;;;3.20;99.90;;;4.72;100.00;99406.77;1709911;74;24461;-72
2021/01/24 02:16:52;;;;;;;13.65;9.59;;;3.20;99.90;;;4.78;100.00;99411.98;1710932;74;24475;-73
2021/01/24 02:19:18;;;;;;;17.58;10.22;;;3.20;99.90;;;4.77;100.00;99412.84;1706209;74;25042;-75
2021/01/24 02:21:39;;;;;;;18.22;10.58;;;3.20;99.90;;;4.78;100.00;99415.84;1700498;74;24547;-73
2021/01/24 02:24:00;;;;;;;18.30;10.37;;;3.30;99.90;;;4.68;100.00;99423.06;1707059;74;24497;-73
2021/01/24 02:26:22;;;;;;;15.81;10.77;;;3.30;99.90;;;4.68;100.00;99422.20;1710678;74;24505;-72
2021/01/24 02:28:56;;;;;;;17.35;10.39;;;3.30;99.90;;;4.54;100.00;99421.19;1709104;74;24530;-72
2021/01/24 02:31:15;;;;;;;15.81;10.51;;;3.30;99.90;;;4.65;100.00;99432.48;1697859;74;24430;-74
2021/01/24 02:33:36;;;;;;;17.57;10.31;;;3.20;99.90;;;4.63;100.00;99430.75;1707051;74;24454;-73
2021/01/24 02:35:58;;;;;;;16.25;10.20;;;3.20;99.90;;;4.65;100.00;99431.20;1708588;74;24508;-73
2021/01/24 02:38:17;;;;;;;15.32;10.21;;;3.20;99.90;;;4.49;100.00;99437.42;1709623;73;24511;-73
2021/01/24 02:40:37;;;;;;;16.58;10.16;;;3.20;99.90;;;4.55;100.00;99438.38;1717753;73;24465;-73
2021/01/24 02:42:54;;;;;;;14.64;9.46;;;3.20;99.90;;;4.65;100.00;99432.48;1726246;73;25048;-73
2021/01/24 02:45:14;;;;;;;15.54;9.92;;;3.20;99.90;;;4.75;100.00;99439.02;1720057;74;24440;-72
2021/01/24 02:47:33;;;;;;;14.26;9.95;;;3.20;99.90;;;4.74;100.00;99445.04;1706677;74;24429;-75
2021/01/24 02:49:52;;;;;;;15.28;9.40;;;3.20;99.90;;;4.59;100.00;99441.86;1707969;74;24413;-75
2021/01/24 02:52:09;;;;;;;14.43;9.93;;;3.20;99.90;;;4.60;100.00;99449.61;1702724;74;24962;-73
2021/01/24 02:54:26;;;;;;;15.30;8.99;;;3.20;99.90;;;4.71;100.00;99445.01;1707662;74;24618;-72
2021/01/24 02:56:43;;;;;;;14.67;9.59;;;3.20;99.90;;;4.75;100.00;99442.89;1716990;73;24508;-72
2021/01/24 02:58:59;;;;;;;13.25;9.35;;;3.20;99.90;;;4.77;100.00;99447.65;1702651;74;24891;-72
2021/01/24 03:01:16;;;;;;;14.67;9.94;;;3.20;99.90;;;4.76;100.00;99454.50;1707578;73;24409;-73
2021/01/24 03:03:32;;;;;;;12.84;9.22;;;3.20;99.90;;;4.71;100.00;99452.30;1705990;74;24452;-74
2021/01/24 03:05:49;;;;;;;14.35;9.33;;;3.20;99.90;;;4.75;100.00;99452.79;1710785;73;24524;-73
2021/01/24 03:08:06;;;;;;;13.82;9.29;;;3.20;99.90;;;4.83;100.00;99459.31;1716448;74;24930;-72
2021/01/24 03:10:24;;;;;;;15.10;9.65;;;3.20;99.90;;;4.79;100.00;99467.43;1706630;74;24515;-74
2021/01/24 03:12:47;;;;;;;15.39;9.54;;;3.20;99.90;;;4.82;100.00;99467.91;1709410;73;24449;-73
2021/01/24 03:15:09;;;;;;;14.22;9.63;;;3.20;99.90;;;4.93;100.00;99470.18;1679457;75;24989;-74
2021/01/24 03:17:28;;;;;;;15.45;9.30;;;3.20;99.90;;;4.94;100.00;99471.48;1720110;74;24606;-73
2021/01/24 03:19:46;;;;;;;14.62;9.58;;;3.20;99.90;;;4.95;100.00;99478.81;1714155;74;24487;-74
2021/01/24 03:22:04;;;;;;;15.61;10.05;;;3.30;99.90;;;4.97;100.00;99475.80;1703057;74;24444;-73
2021/01/24 03:24:23;;;;;;;15.46;10.10;;;3.30;99.90;;;5.01;100.00;99480.16;1688576;75;25621;-73
2021/01/24 03:26:39;;;;;;;15.51;9.68;;;3.30;99.90;;;5.03;100.00;99483.17;1708465;73;24590;-74
2021/01/24 03:28:56;;;;;;;15.98;9.84;;;3.30;99.90;;;4.98;100.00;99486.58;1707096;74;24421;-73
2021/01/24 03:31:12;;;;;;;16.54;10.02;;;3.30;99.90;;;4.98;100.00;99486.58;1709079;74;24536;-73
2021/01/24 03:33:29;;;;;;;15.00;10.14;;;3.30;99.90;;;5.00;100.00;99492.59;1711904;74;24524;-73
2021/01/24 03:35:45;;;;;;;16.53;10.96;;;3.30;99.90;;;4.99;100.00;99491.75;1709416;73;24508;-73
2021/01/24 03:38:02;;;;;;;16.35;9.99;;;3.30;99.90;;;5.02;100.00;99494.77;1700662;74;24446;-72
2021/01/24 03:40:18;;;;;;;16.90;10.98;;;3.30;99.90;;;5.12;100.00;99495.32;1705983;75;24499;-75
2021/01/24 03:42:34;;;;;;;17.21;11.09;;;3.30;99.90;;;5.00;100.00;99499.04;1715748;73;24512;-73
2021/01/24 03:44:51;;;;;;;19.10;11.14;;;3.30;99.90;;;5.03;100.00;99501.23;1708065;74;24536;-73
2021/01/24 03:47:07;;;;;;;19.59;11.99;;;3.30;99.90;;;5.06;100.00;99503.84;1705335;74;24407;-74
2021/01/24 03:49:24;;;;;;;19.60;12.45;;;3.30;99.90;;;5.07;100.00;99506.01;1699895;74;24500;-74
2021/01/24 03:51:43;;;;;;;20.70;13.10;;;3.30;99.90;;;5.06;100.00;99505.13;1705662;74;24444;-73
2021/01/24 03:54:01;;;;;;;20.77;13.40;;;3.40;99.90;;;4.99;100.00;99508.92;1709131;74;24460;-74
2021/01/24 03:56:18;;;;;;;22.68;13.76;;;3.40;99.90;;;5.05;100.00;99508.98;1715943;73;24542;-77
2021/01/24 03:58:34;;;;;;;23.34;14.58;;;3.40;99.90;;;5.09;100.00;99510.32;1699176;74;24513;-72
2021/01/24 04:00:50;;;;;;;23.17;14.23;;;3.30;99.90;;;5.03;100.00;99511.97;1700123;75;24916;-73
2021/01/24 04:03:07;;;;;;;24.65;13.82;;;3.30;99.90;;;5.04;100.00;99515.88;1712493;75;24890;-74
2021/01/24 04:05:23;;;;;;;20.91;14.21;;;3.30;99.90;;;5.02;100.00;99519.28;1721186;73;24432;-72
2021/01/24 04:07:38;;;;;;;24.48;14.69;;;3.30;99.90;;;4.97;100.00;99523.09;1711042;74;24543;-74
2021/01/24 04:09:54;;;;;;;20.98;13.76;;;3.30;99.90;;;5.04;100.00;99516.30;1697650;74;24494;-72
2021/01/24 04:12:11;;;;;;;23.19;15.33;;;3.30;99.90;;;5.03;100.00;99523.58;1713165;73;24444;-73
2021/01/24 04:14:28;;;;;;;21.08;13.58;;;3.30;99.90;;;4.98;100.00;99526.55;1711805;73;24888;-72
2021/01/24 04:16:44;;;;;;;22.72;14.00;;;3.30;99.90;;;5.04;100.00;99521.45;1717108;74;24593;-72
2021/01/24 04:19:00;;;;;;;23.71;14.32;;;3.30;99.90;;;5.04;100.00;99525.33;1712647;74;24427;-71
2021/01/24 04:21:16;;;;;;;24.53;15.41;;;3.30;99.90;;;5.06;100.00;99527.06;1705852;73;24921;-73
2021/01/24 04:23:33;;;;;;;23.31;14.52;;;3.30;99.90;;;5.01;100.00;99534.32;1699129;74;24869;-73
2021/01/24 04:25:49;;;;;;;23.91;15.23;;;3.30;99.90;;;5.00;100.00;99524.83;1702658;75;24518;-73
2021/01/24 04:28:06;;;;;;;23.84;15.81;;;3.30;99.90;;;4.98;100.00;99527.84;1709378;74;24985;-72
2021/01/24 04:30:23;;;;;;;23.80;14.61;;;3.30;99.90;;;4.98;100.00;99531.27;1715294;74;24498;-73
2021/01/24 04:32:39;;;;;;;24.30;15.02;;;3.30;99.90;;;4.98;100.00;99533.00;1704743;74;24996;-72
2021/01/24 04:34:55;;;;;;;27.10;15.54;;;3.30;99.90;;;4.97;100.00;99531.25;1701945;74;24523;-74
2021/01/24 04:37:12;;;;;;;24.07;15.10;;;3.30;99.90;;;5.00;100.00;99532.56;1717897;73;24581;-73
2021/01/24 04:39:28;;;;;;;26.80;15.67;;;3.20;99.90;;;5.04;100.00;99533.06;1709734;74;24445;-73
2021/01/24 04:41:47;;;;;;;24.14;15.41;;;3.20;99.90;;;5.05;100.00;99536.95;1704793;74;24418;-74
2021/01/24 04:44:05;;;;;;;23.58;14.97;;;3.20;99.90;;;5.08;100.00;99539.97;1700858;74;24520;-75
2021/01/24 04:46:21;;;;;;;24.39;15.17;;;3.20;99.90;;;5.02;100.00;99536.92;1710297;74;24887;-73
2021/01/24 04:48:38;;;;;;;26.47;15.41;;;3.20;99.90;;;4.98;100.00;99542.03;1710338;74;24515;-72
2021/01/24 04:50:55;;;;;;;24.84;15.96;;;3.20;99.90;;;5.04;100.00;99545.55;1709628;74;24863;-74
2021/01/24 04:53:12;;;;;;;23.19;14.35;;;3.20;99.90;;;4.96;100.00;99546.30;1705976;74;24502;-72
2021/01/24 04:55:29;;;;;;;23.34;15.02;;;3.20;99.90;;;5.00;100.00;99546.75;1702356;74;24450;-72
2021/01/24 04:57:48;;;;;;;24.88;14.98;;;3.20;99.90;;;5.02;100.00;99554.97;1703704;74;24472;-75
2021/01/24 05:00:09;;;;;;;22.50;14.88;;;3.20;99.90;;;4.97;100.00;99556.63;1706423;74;24922;-72
2021/01/24 05:02:26;;;;;;;23.14;15.00;;;3.20;99.90;;;4.95;100.00;99556.18;1705831;74;24925;-72
2021/01/24 05:04:42;;;;;;;20.86;13.89;;;3.20;99.90;;;4.98;100.00;99558.80;1711322;74;24535;-74
2021/01/24 05:06:58;;;;;;;26.41;15.24;;;3.20;99.90;;;4.99;100.00;99558.81;1713112;74;24578;-74
2021/01/24 05:09:17;;;;;;;26.12;15.87;;;3.20;99.90;;;4.98;100.00;99562.66;1700997;74;24503;-72
2021/01/24 05:11:34;;;;;;;26.28;15.23;;;3.20;99.90;;;4.92;100.00;99564.73;1719783;73;24447;-75
2021/01/24 05:13:50;;;;;;;23.79;14.64;;;3.10;99.90;;;4.95;100.00;99569.92;1716208;74;24542;-73
2021/01/24 05:16:09;;;;;;;27.83;14.57;;;3.10;99.90;;;4.91;100.00;99573.73;1716773;74;24432;-73
2021/01/24 05:18:25;;;;;;;23.63;14.62;;;3.10;99.90;;;4.87;100.00;99575.41;1712559;73;24504;-77
2021/01/24 05:20:45;;;;;;;25.48;15.12;;;3.10;99.90;;;4.89;100.00;99575.01;1717294;73;24510;-74
2021/01/24 05:23:04;;;;;;;22.93;14.77;;;3.10;99.90;;;4.97;100.00;99575.09;1723934;73;24862;-73
2021/01/24 05:25:24;;;;;;;23.73;15.63;;;3.10;99.90;;;4.92;100.00;99576.33;1711944;73;24518;-74
2021/01/24 05:27:41;;;;;;;23.11;14.76;;;3.10;99.90;;;4.90;100.00;99578.47;1709377;73;24424;-73
2021/01/24 05:30:00;;;;;;;22.68;15.20;;;3.10;99.90;;;4.95;100.00;99574.23;1705174;74;24818;-74
2021/01/24 05:32:20;;;;;;;24.84;15.70;;;3.10;99.90;;;4.85;100.00;99581.41;1709988;73;24544;-73
2021/01/24 05:34:36;;;;;;;23.10;15.26;;;3.10;99.90;;;4.85;100.00;99579.70;1709121;73;24527;-73
2021/01/24 05:36:52;;;;;;;14.41;8.67;;;3.10;99.90;;;4.91;100.00;99580.19;1682409;75;24885;-75
2021/01/24 05:39:10;;;;;;;24.77;15.04;;;3.00;99.90;;;4.74;100.00;99588.13;1708647;73;24441;-73
2021/01/24 05:41:31;;;;;;;21.14;12.65;;;3.00;99.90;;;4.77;100.00;99581.31;1713649;74;24462;-72
2021/01/24 05:43:49;;;;;;;22.00;14.10;;;3.00;99.90;;;4.77;100.00;99589.45;1708940;74;24485;-73
2021/01/24 05:46:06;;;;;;;19.04;12.82;;;3.00;99.90;;;4.79;100.00;99594.22;1706732;74;25016;-72
2021/01/24 05:48:23;;;;;;;22.90;13.34;;;3.00;99.90;;;4.80;100.00;99594.65;1698489;74;24449;-75
2021/01/24 05:50:45;;;;;;;22.32;13.71;;;2.90;99.90;;;4.82;100.00;99596.84;1687124;75;24918;-73
2021/01/24 05:53:06;;;;;;;21.54;13.08;;;2.90;99.90;;;4.75;100.00;99597.59;1716337;73;24464;-72
2021/01/24 05:55:35;;;;;;;22.08;13.42;;;2.90;99.90;;;4.81;100.00;99601.53;1711099;73;24500;-73
2021/01/24 05:57:52;;;;;;;23.80;13.03;;;2.90;99.90;;;4.76;100.00;99600.18;1708136;74;24429;-74
2021/01/24 06:00:14;;;;;;;21.57;13.28;;;2.80;99.90;;;4.80;100.00;99595.94;1706115;74;24872;-74
2021/01/24 06:02:31;;;;;;;20.29;12.78;;;2.90;99.90;;;4.81;100.00;99607.97;1713981;74;24441;-72
2021/01/24 06:04:49;;;;;;;21.06;12.40;;;2.90;99.90;;;4.82;100.00;99609.28;1713889;73;24472;-72
2021/01/24 06:07:08;;;;;;;18.78;12.70;;;2.80;99.90;;;4.80;100.00;99610.13;1712689;74;24491;-74
2021/01/24 06:09:23;;;;;;;21.46;12.43;;;2.80;99.90;;;4.80;100.00;99612.70;1714990;74;24443;-73
2021/01/24 06:11:42;;;;;;;21.90;12.81;;;2.80;99.90;;;4.83;100.00;99612.73;1702521;74;24528;-74
2021/01/24 06:14:02;;;;;;;18.94;11.96;;;2.80;99.90;;;4.85;100.00;99616.22;1706887;74;24477;-73
2021/01/24 06:16:26;;;;;;;20.97;12.27;;;2.80;99.90;;;4.90;100.00;99618.44;1705654;74;24605;-73
2021/01/24 06:18:49;;;;;;;19.40;12.61;;;2.80;99.90;;;4.85;100.00;99616.22;1707562;74;24462;-73
2021/01/24 06:21:09;;;;;;;20.13;13.13;;;2.90;99.90;;;4.83;100.00;99624.34;1721049;73;24561;-73
2021/01/24 06:23:31;;;;;;;22.91;12.76;;;2.90;99.90;;;4.87;100.00;99615.82;1710815;73;24505;-72
2021/01/24 06:25:51;;;;;;;18.90;12.31;;;2.90;99.90;;;4.93;100.00;99627.09;1721164;74;24455;-72
2021/01/24 06:28:16;;;;;;;19.78;11.80;;;2.90;99.90;;;4.90;100.00;99634.75;1708860;74;25055;-74
2021/01/24 06:30:36;;;;;;;18.20;11.03;;;2.80;99.90;;;4.89;100.00;99638.19;1709238;73;24457;-74
2021/01/24 06:32:55;;;;;;;18.71;11.58;;;2.80;99.90;;;4.86;100.00;99637.28;1716583;73;24554;-73
2021/01/24 06:35:24;;;;;;;18.03;11.90;;;2.80;99.90;;;4.82;100.00;99637.65;1704496;74;24887;-76
2021/01/24 06:37:41;;;;;;;21.24;11.79;;;2.80;99.90;;;4.80;100.00;99641.94;1712521;74;24468;-73
2021/01/24 06:40:00;;;;;;;16.53;9.82;;;2.80;99.90;;;4.80;100.00;99652.67;1714160;73;24498;-73
2021/01/24 06:42:35;;;;;;;16.10;9.20;;;2.70;99.90;;;4.71;100.00;99657.70;1714537;74;24428;-72
2021/01/24 06:44:52;;;;;;;18.40;10.35;;;2.70;99.90;;;4.76;100.00;99663.80;1704866;74;24437;-73
2021/01/24 06:47:11;;;;;;;15.74;10.23;;;2.70;99.90;;;4.86;100.00;99672.97;1703814;74;24906;-73
2021/01/24 06:49:43;;;;;;;19.49;10.78;;;2.80;99.90;;;4.91;100.00;99670.03;1711396;74;24555;-73
2021/01/24 06:52:21;;;;;;;20.80;10.56;;;2.80;99.90;;;4.88;100.00;99671.28;1716470;73;24472;-75
2021/01/24 06:54:39;;;;;;;14.96;8.93;;;2.80;99.90;;;4.89;100.00;99682.03;1710598;73;24478;-73
2021/01/24 06:57:07;;;;;;;15.69;8.49;;;2.80;99.90;;;4.84;100.00;99678.96;1720783;73;24447;-74
2021/01/24 06:59:32;;;;;;;15.23;8.16;;;2.80;99.90;;;4.76;100.00;99683.98;1704676;74;24452;-73
2021/01/24 07:01:49;;;;;;;11.98;7.79;;;2.80;99.90;;;4.86;100.00;99690.14;1708077;74;24446;-74
2021/01/24 07:04:41;;;;;;;10.14;6.80;;;2.80;99.90;;;4.91;100.00;99698.81;1703093;74;24936;-74
2021/01/24 07:07:00;;;;;;;11.41;6.51;;;2.80;99.90;;;4.84;100.00;99700.44;1703757;74;24686;-73
2021/01/24 07:09:41;;;;;;;8.28;6.07;;;2.80;99.90;;;4.77;100.00;99706.36;1717603;73;24580;-75
2021/01/24 07:12:00;;;;;;;10.48;6.12;;;2.70;99.90;;;4.72;100.00;99699.39;1717491;73;24566;-73
2021/01/24 07:14:48;;;;;;;10.91;6.31;;;2.70;99.90;;;4.68;100.00;99707.08;1699943;74;24888;-73
2021/01/24 07:17:09;;;;;;;10.20;5.79;;;2.60;99.90;;;4.67;100.00;99714.79;1707273;74;24470;-74
2021/01/24 07:19:29;;;;;;;10.48;5.38;;;2.60;99.90;;;4.61;100.00;99714.70;1705689;74;24513;-74
2021/01/24 07:21:46;;;;;;;10.65;6.03;;;2.60;99.90;;;4.58;100.00;99726.25;1702652;75;24447;-73
2021/01/24 07:24:03;;;;;;;8.86;4.80;;;2.50;99.90;;;4.53;100.00;99725.30;1712130;73;24442;-74
2021/01/24 07:26:20;;;;;;;8.69;4.86;;;2.50;99.90;;;4.43;100.00;99732.02;1706344;74;24547;-73
2021/01/24 07:28:41;;;;;;;8.25;5.04;;;2.50;99.90;;;4.47;100.00;99731.66;1707928;74;24491;-73
2021/01/24 07:31:06;;;;;;;8.08;5.21;;;2.40;99.90;;;4.51;100.00;99739.45;1713325;73;25012;-73
2021/01/24 07:33:22;;;;;;;7.48;5.20;;;2.40;99.90;;;4.49;100.00;99742.83;1703587;74;24553;-73
2021/01/24 07:35:39;;;;;;;9.35;5.20;;;2.40;99.90;;;4.53;100.00;99744.23;1708721;75;24479;-74
2021/01/24 07:37:55;;;;;;;8.27;5.00;;;2.40;99.90;;;4.50;100.00;99749.30;1712473;74;24469;-72
2021/01/24 07:40:14;;;;;;;7.96;5.57;;;2.40;99.90;;;4.50;100.00;99763.92;1699653;74;24481;-73
2021/01/24 07:42:32;;;;;;;7.90;4.82;;;2.40;99.90;;;4.53;100.00;99763.56;1710767;73;24855;-75
2021/01/24 07:44:50;;;;;;;10.53;5.27;;;2.40;99.90;;;4.62;100.00;99761.53;1707255;74;24422;-73
2021/01/24 07:47:07;;;;;;;6.63;4.63;;;2.40;99.90;;;4.57;100.00;99767.91;1710965;74;24655;-73
2021/01/24 07:49:25;;;;;;;8.51;5.10;;;2.40;99.90;;;4.51;100.00;99766.93;1722615;74;24565;-75
2021/01/24 07:51:42;;;;;;;9.57;5.45;;;2.40;99.90;;;4.53;100.00;99771.70;1709046;73;25150;-74
2021/01/24 07:54:02;;;;;;;10.02;5.52;;;2.40;99.90;;;4.57;100.00;99767.03;1702525;74;24479;-74
2021/01/24 07:56:19;;;;;;;9.94;6.10;;;2.40;99.90;;;4.56;100.00;99780.77;1717602;73;24492;-72
2021/01/24 07:58:39;;;;;;;9.57;5.87;;;2.40;99.90;;;4.55;100.00;99779.89;1706287;74;24444;-74
2021/01/24 08:00:58;;;;;;;11.30;6.38;;;2.40;99.90;;;4.55;100.00;99788.06;1718112;73;24522;-73
2021/01/24 08:03:15;;;;;;;12.19;6.27;;;2.40;99.90;;;4.56;100.00;99782.94;1709955;73;25006;-73
2021/01/24 08:05:36;;;;;;;9.02;5.65;;;2.40;99.90;;;4.43;100.00;99792.98;1708177;74;24426;-73
2021/01/24 08:07:53;;;;;;;11.57;6.38;;;2.40;99.90;;;4.46;100.00;99804.23;1713883;73;24435;-75
2021/01/24 08:10:12;;;;;;;9.20;5.56;;;2.40;99.90;;;4.40;100.00;99804.53;1709660;73;24469;-72
2021/01/24 08:12:29;;;;;;;7.58;5.30;;;2.40;99.90;;;4.41;100.00;99807.58;1706666;74;24489;-72
2021/01/24 08:14:47;;;;;;;9.66;5.81;;;2.40;99.90;;;4.40;100.00;99823.86;1709786;74;24484;-73
2021/01/24 08:17:04;;;;;;;7.17;5.36;;;2.50;99.90;;;4.42;100.00;99819.61;1708732;73;24444;-74
2021/01/24 08:19:24;;;;;;;7.95;5.35;;;2.50;99.90;;;4.55;100.00;99824.16;1709359;73;24433;-73
2021/01/24 08:21:41;;;;;;;7.00;5.50;;;2.60;99.90;;;4.58;100.00;99839.67;1720094;73;24431;-72
2021/01/24 08:23:58;;;;;;;9.55;5.62;;;2.60;99.90;;;4.49;100.00;99830.47;1715718;73;25032;-73
2021/01/24 08:26:16;;;;;;;5.48;4.35;;;2.60;99.90;;;4.46;100.00;99831.70;1721915;73;24857;-72
2021/01/24 08:28:34;;;;;;;6.10;4.16;;;2.60;99.90;;;4.35;100.00;99835.78;1717119;73;24442;-73
2021/01/24 08:30:51;;;;;;;7.68;4.40;;;2.60;99.90;;;4.34;100.00;99834.06;1724802;73;24426;-73
2021/01/24 08:33:09;;;;;;;7.82;4.29;;;2.60;99.90;;;4.30;100.00;99836.99;1717327;73;24428;-74
2021/01/24 08:35:26;;;;;;;7.61;3.92;;;2.60;99.90;;;4.25;100.00;99839.05;1713767;73;24417;-73
2021/01/24 08:37:44;;;;;;;5.11;3.60;;;2.60;99.90;;;4.20;100.00;99840.25;1705086;74;24989;-73
2021/01/24 08:40:00;;;;;;;5.99;3.59;;;2.50;99.90;;;4.21;100.00;99841.98;1702142;74;24895;-75
2021/01/24 08:42:18;;;;;;;6.76;3.38;;;2.50;99.90;;;4.16;100.00;99833.70;1706668;74;25100;-72
2021/01/24 08:44:34;;;;;;;5.60;3.54;;;2.40;99.90;;;4.18;100.00;99838.46;1710870;73;24450;-73
2021/01/24 08:46:52;;;;;;;5.11;3.59;;;2.40;99.90;;;4.12;100.00;99844.79;1709743;74;24452;-74
2021/01/24 08:49:12;;;;;;;6.36;3.46;;;2.40;99.90;;;4.13;100.00;99840.95;1708949;74;24524;-72
2021/01/24 08:51:48;;;;;;;6.82;3.66;;;2.30;99.90;;;4.10;100.00;99844.77;1712328;73;24485;-74
2021/01/24 08:54:19;;;;;;;5.31;3.62;;;2.30;99.90;;;4.11;100.00;99840.48;1706885;74;24865;-74
2021/01/24 08:56:36;;;;;;;6.78;3.59;;;2.30;99.90;;;4.18;100.00;99853.52;1707824;74;24429;-72
2021/01/24 08:58:53;;;;;;;6.69;4.32;;;2.30;99.90;;;4.13;100.00;99849.97;1705917;74;24433;-74
2021/01/24 09:01:10;;;;;;;5.34;3.70;;;2.30;99.90;;;4.22;100.00;99857.02;1713771;73;24778;-73
2021/01/24 09:03:28;;;;;;;5.59;3.94;;;2.30;99.90;;;4.26;100.00;99853.66;1713474;74;24414;-74
2021/01/24 09:05:48;;;;;;;6.11;4.51;;;2.30;99.90;;;4.14;100.00;99850.85;1720814;73;24442;-73
2021/01/24 09:08:05;;;;;;;5.59;3.77;;;2.30;99.90;;;4.12;100.00;99855.09;1712822;74;24894;-72
2021/01/24 09:10:24;;;;;;;6.13;4.24;;;2.30;99.90;;;4.12;100.00;99859.84;1708798;73;24481;-73
2021/01/24 09:12:40;;;;;;;7.30;4.32;;;2.30;99.90;;;4.17;100.00;99862.50;1716314;73;24503;-72
2021/01/24 09:14:58;;;;;;;5.61;4.10;;;2.30;99.90;;;4.17;100.00;99871.08;1709067;74;24939;-74
2021/01/24 09:17:16;;;;;;;5.54;4.40;;;2.30;99.90;;;4.15;100.00;99874.47;1713755;73;24423;-74
2021/01/24 09:19:35;;;;;;;7.94;4.46;;;2.20;99.90;;;4.24;100.00;99877.22;1716817;73;24566;-73
2021/01/24 09:21:53;;;;;;;5.45;3.94;;;2.20;99.90;;;4.28;100.00;99884.19;1716463;73;24418;-74
2021/01/24 09:24:11;;;;;;;5.60;4.40;;;2.20;99.90;;;4.24;100.00;99886.24;1709651;73;24474;-74
2021/01/24 09:26:30;;;;;;;6.18;4.36;;;2.20;99.90;;;4.27;100.00;99884.60;1714561;73;24918;-74
2021/01/24 09:28:58;;;;;;;6.27;3.95;;;2.30;99.90;;;4.35;100.00;99889.48;1710258;73;24448;-78
2021/01/24 09:31:15;;;;;;;6.09;3.94;;;2.30;99.90;;;4.34;100.00;99881.32;1706746;74;24923;-77
2021/01/24 09:33:31;;;;;;;6.22;4.14;;;2.30;99.90;;;4.44;100.00;99884.95;1702346;73;24532;-77
2021/01/24 09:35:48;;;;;;;7.49;4.48;;;2.40;99.90;;;4.50;100.00;99875.59;1714090;73;24476;-76
2021/01/24 09:40:10;;;;;;;6.19;4.07;;;2.50;99.90;;;4.66;100.00;99887.94;1737462;72;32969;-78
2021/01/24 09:42:26;;;;;;;8.26;4.11;;;2.50;99.90;;;4.65;100.00;99884.92;1708286;73;24471;-78
2021/01/24 09:44:44;;;;;;;5.54;3.90;;;2.60;99.90;;;4.63;100.00;99890.45;1704611;74;24536;-78
2021/01/24 09:47:01;;;;;;;6.21;4.27;;;2.70;99.90;;;4.85;100.00;99890.86;1707750;74;25000;-78